Pagrindinis puslapis
METAR-TAF:

METAR-TAF

Oro uostai :

Maiduguris, Nigerija

platuma: 11-51N, ilguma: 013-05E, Aukštis: 354 m

METAR: trūkstamas

Laikas: 03:58 (02:58 UTC)

Prognozė

Ataskaita buvo paskelbta 3 valandos ir 58 minutes, ne 23:00 UTC
Prognozė galioja nuo 22 metu 00 UTC su 23 metu 06 UTC
Vėjas 8 kt iš Pietvakarių
Matomumas 10 km arba daugiau
nėra debesų žemiau 1500 m ir nėra kamuolinių lietaus debesų

TAF: DNMA 212300Z 2200/2306 23008KT CAVOK

Orai ataskaitas ir orų prognozės (METAR, TAF).

turimą stotys yra geltonos ir raudonos taškus žemėlapyje.

Perkelti pele per norėdami pamatyti stoties vardą.

Tada spustelėkite, norėdami matyti oro stebėjimo ir prognozės.

Norėdami pakeisti žemėlapį: spustelėkite ant žalios mygtukų su juodo kryžiaus žemyn,; žalią mygtuką su brūkšneliu, jei norite nutolinti; arba žalių rodyklių gretimoms žemėlapius.


METAR-TAF: